createdAt,value
2022-12-25T00:00:29.411Z,62.88
2022-12-25T00:02:57.700Z,62.94
2022-12-25T00:05:25.983Z,62.91
2022-12-25T00:07:54.162Z,62.97
2022-12-25T00:10:23.969Z,62.99
2022-12-25T00:12:52.498Z,63.10
2022-12-25T00:15:20.769Z,63.00
2022-12-25T00:17:48.801Z,63.03
2022-12-25T00:20:17.090Z,62.93
2022-12-25T00:22:45.155Z,63.06
2022-12-25T00:25:13.352Z,63.17
2022-12-25T00:27:42.937Z,62.95
2022-12-25T00:30:12.051Z,62.98
2022-12-25T00:32:40.245Z,63.18
2022-12-25T00:35:08.907Z,63.04
2022-12-25T00:37:37.022Z,63.05
2022-12-25T00:40:05.968Z,63.19
2022-12-25T00:42:34.077Z,63.20
2022-12-25T00:45:04.790Z,63.07
2022-12-25T00:47:32.989Z,63.15
2022-12-25T00:50:01.166Z,63.27
2022-12-25T00:52:29.277Z,63.26
2022-12-25T00:54:57.333Z,63.32
2022-12-25T00:57:25.498Z,63.29
2022-12-25T00:59:53.635Z,63.28
2022-12-25T01:02:26.329Z,63.47
2022-12-25T01:04:56.538Z,63.47
2022-12-25T01:07:26.940Z,63.34
2022-12-25T01:10:12.477Z,63.49
2022-12-25T01:12:42.795Z,63.50
2022-12-25T01:15:13.150Z,63.48
2022-12-25T01:17:43.556Z,63.52
2022-12-25T01:20:13.566Z,63.45
2022-12-25T01:22:41.865Z,63.65
2022-12-25T01:25:11.072Z,63.63
2022-12-25T01:27:40.166Z,63.57
2022-12-25T01:30:09.451Z,63.70
2022-12-25T01:32:37.629Z,63.54
2022-12-25T01:35:08.012Z,63.67
2022-12-25T01:37:36.038Z,63.49
2022-12-25T01:40:04.802Z,63.55
2022-12-25T01:42:35.599Z,63.47
2022-12-25T01:45:34.657Z,63.50
2022-12-25T01:48:06.539Z,63.69
2022-12-25T01:50:38.573Z,63.66
2022-12-25T01:53:07.687Z,63.65
2022-12-25T01:55:37.118Z,63.69
2022-12-25T01:58:05.739Z,63.54
2022-12-25T02:00:34.427Z,63.57
2022-12-25T02:03:02.959Z,63.60
2022-12-25T02:05:33.363Z,63.64
2022-12-25T02:08:09.596Z,63.76
2022-12-25T02:10:39.161Z,63.86
2022-12-25T02:13:08.118Z,63.61
2022-12-25T02:15:45.084Z,63.58
2022-12-25T02:18:20.693Z,63.67
2022-12-25T02:21:09.556Z,63.77
2022-12-25T02:24:07.471Z,63.90
2022-12-25T02:27:04.981Z,63.78
2022-12-25T02:29:43.483Z,63.63
2022-12-25T02:32:21.647Z,63.81
2022-12-25T02:34:54.386Z,63.68
2022-12-25T02:37:28.929Z,63.83
2022-12-25T02:40:01.975Z,63.75
2022-12-25T02:42:54.579Z,63.61
2022-12-25T02:45:49.658Z,63.70
2022-12-25T02:48:37.527Z,63.66
2022-12-25T02:51:27.356Z,63.74
2022-12-25T02:54:16.114Z,63.84
2022-12-25T02:57:05.419Z,63.87
2022-12-25T02:59:54.843Z,63.89
2022-12-25T03:02:43.074Z,63.72
2022-12-25T03:05:32.383Z,63.95
2022-12-25T03:08:05.826Z,63.75
2022-12-25T03:10:56.355Z,63.91
2022-12-25T03:13:30.160Z,64.01
2022-12-25T03:16:15.511Z,64.05
2022-12-25T03:18:45.679Z,64.01
2022-12-25T03:21:31.490Z,64.09
2022-12-25T03:24:19.810Z,63.87
2022-12-25T03:26:56.979Z,64.03
2022-12-25T03:29:44.774Z,64.30
2022-12-25T03:32:23.599Z,64.14
2022-12-25T03:35:21.268Z,63.88
2022-12-25T03:38:28.429Z,64.13
2022-12-25T03:41:24.303Z,64.26
2022-12-25T03:44:16.858Z,64.20
2022-12-25T03:47:07.228Z,64.10
2022-12-25T03:50:03.576Z,64.32
2022-12-25T03:52:53.170Z,64.25
2022-12-25T03:55:54.461Z,64.29
2022-12-25T03:58:42.356Z,64.06
2022-12-25T04:01:28.015Z,64.15
2022-12-25T04:04:13.853Z,64.05
2022-12-25T04:06:59.676Z,63.96
2022-12-25T04:09:47.173Z,64.22
2022-12-25T04:12:32.535Z,64.34
2022-12-25T04:15:18.019Z,64.12
2022-12-25T04:18:03.359Z,64.21
2022-12-25T04:20:48.782Z,64.44
2022-12-25T04:23:34.480Z,64.29
2022-12-25T04:26:22.247Z,64.32
2022-12-25T04:29:07.876Z,64.42
2022-12-25T04:31:53.220Z,64.42
2022-12-25T04:34:38.474Z,64.32
2022-12-25T04:37:06.590Z,64.38
2022-12-25T04:39:34.943Z,64.46
2022-12-25T04:42:04.461Z,64.84
2022-12-25T04:44:32.627Z,65.33
2022-12-25T04:47:04.506Z,65.30
2022-12-25T04:49:35.718Z,65.23
2022-12-25T04:52:03.888Z,65.14
2022-12-25T04:54:32.054Z,65.02
2022-12-25T04:57:00.158Z,64.86
2022-12-25T04:59:29.582Z,64.59
2022-12-25T05:01:57.881Z,64.65
2022-12-25T05:04:25.996Z,64.34
2022-12-25T05:06:54.103Z,64.20
2022-12-25T05:09:22.214Z,64.03
2022-12-25T05:11:53.387Z,64.07
2022-12-25T05:14:21.515Z,63.85
2022-12-25T05:16:51.220Z,63.81
2022-12-25T05:19:19.806Z,63.69
2022-12-25T05:21:47.903Z,63.60
2022-12-25T05:24:16.011Z,63.33
2022-12-25T05:26:44.105Z,63.34
2022-12-25T05:29:12.197Z,63.31
2022-12-25T05:31:40.319Z,63.41
2022-12-25T05:34:09.742Z,63.32
2022-12-25T05:36:39.413Z,63.53
2022-12-25T05:39:07.561Z,63.57
2022-12-25T05:41:35.623Z,63.71
2022-12-25T05:44:03.766Z,63.68
2022-12-25T05:46:35.073Z,63.60
2022-12-25T05:49:03.164Z,63.76
2022-12-25T05:51:33.057Z,63.77
2022-12-25T05:54:01.156Z,63.80
2022-12-25T05:56:29.468Z,63.71
2022-12-25T05:58:57.632Z,63.76
2022-12-25T06:01:28.578Z,63.66
2022-12-25T06:03:57.842Z,63.80
2022-12-25T06:06:26.328Z,63.79
2022-12-25T06:08:56.847Z,63.74
2022-12-25T06:11:25.056Z,63.77
2022-12-25T06:13:54.137Z,63.75
2022-12-25T06:16:22.354Z,63.70
2022-12-25T06:18:52.955Z,63.91
2022-12-25T06:21:21.157Z,63.88
2022-12-25T06:23:49.469Z,63.82
2022-12-25T06:26:20.403Z,63.64
2022-12-25T06:28:48.894Z,63.61
2022-12-25T06:31:20.150Z,63.40
2022-12-25T06:33:48.631Z,63.35
2022-12-25T06:36:19.126Z,63.33
2022-12-25T06:38:47.605Z,63.24
2022-12-25T06:41:19.174Z,63.39
2022-12-25T06:43:49.848Z,63.53
2022-12-25T06:46:18.641Z,63.53
2022-12-25T06:48:49.526Z,63.70
2022-12-25T06:51:19.166Z,63.60
2022-12-25T06:53:47.685Z,63.61
2022-12-25T06:56:20.549Z,63.63
2022-12-25T06:58:50.505Z,63.59
2022-12-25T07:01:23.040Z,63.57
2022-12-25T07:03:54.467Z,63.80
2022-12-25T07:06:22.955Z,63.70
2022-12-25T07:08:51.102Z,63.60
2022-12-25T07:11:21.065Z,63.56
2022-12-25T07:13:49.242Z,63.55
2022-12-25T07:16:17.697Z,63.47
2022-12-25T07:18:45.917Z,63.57
2022-12-25T07:21:16.252Z,63.57
2022-12-25T07:23:45.437Z,63.52
2022-12-25T07:26:14.384Z,63.50
2022-12-25T07:28:44.278Z,63.53
2022-12-25T07:31:14.758Z,63.44
2022-12-25T07:33:43.268Z,63.56
2022-12-25T07:36:12.878Z,63.46
2022-12-25T07:38:41.766Z,63.58
2022-12-25T07:41:11.203Z,63.56
2022-12-25T07:43:39.616Z,63.37
2022-12-25T07:46:09.167Z,63.57
2022-12-25T07:48:38.255Z,63.49
2022-12-25T07:51:08.296Z,63.56
2022-12-25T07:53:37.336Z,63.60
2022-12-25T07:56:07.259Z,63.58
2022-12-25T07:58:35.833Z,63.55
2022-12-25T08:01:05.565Z,63.62
2022-12-25T08:03:36.562Z,63.74
2022-12-25T08:06:07.093Z,63.39
2022-12-25T08:08:36.095Z,63.69
2022-12-25T08:11:04.429Z,63.61
2022-12-25T08:13:33.056Z,63.53
2022-12-25T08:16:02.841Z,63.64
2022-12-25T08:18:31.859Z,63.63
2022-12-25T08:21:05.312Z,63.53
2022-12-25T08:23:35.091Z,63.67
2022-12-25T08:26:05.545Z,63.85
2022-12-25T08:28:35.592Z,63.53
2022-12-25T08:31:08.961Z,63.75
2022-12-25T08:33:37.556Z,63.71
2022-12-25T08:36:09.431Z,63.85
2022-12-25T08:38:37.831Z,63.88
2022-12-25T08:41:06.527Z,63.86
2022-12-25T08:43:37.846Z,63.77
2022-12-25T08:46:07.083Z,63.88
2022-12-25T08:48:35.682Z,63.95
2022-12-25T08:51:04.889Z,64.02
2022-12-25T08:53:34.476Z,63.96
2022-12-25T08:56:04.856Z,64.18
2022-12-25T08:58:33.661Z,63.91
2022-12-25T09:01:01.948Z,63.93
2022-12-25T09:03:32.169Z,64.07
2022-12-25T09:06:04.031Z,63.99
2022-12-25T09:08:38.020Z,64.00
2022-12-25T09:11:13.749Z,63.95
2022-12-25T09:13:42.556Z,63.98
2022-12-25T09:16:13.051Z,63.84
2022-12-25T09:18:41.558Z,63.76
2022-12-25T09:21:13.255Z,63.66
2022-12-25T09:23:43.382Z,63.70
2022-12-25T09:26:14.184Z,63.67
2022-12-25T09:28:48.479Z,63.61
2022-12-25T09:31:19.407Z,63.45
2022-12-25T09:33:47.703Z,63.58
2022-12-25T09:36:15.864Z,63.53
2022-12-25T09:38:45.327Z,63.50
2022-12-25T09:41:18.123Z,63.48
2022-12-25T09:43:50.325Z,63.48
2022-12-25T09:46:22.837Z,63.27
2022-12-25T09:48:58.712Z,63.16
2022-12-25T09:51:30.705Z,63.27
2022-12-25T09:54:04.525Z,63.36
2022-12-25T09:56:34.022Z,63.57
2022-12-25T09:59:02.179Z,63.47
2022-12-25T10:01:39.715Z,63.56
2022-12-25T10:04:28.652Z,63.82
2022-12-25T10:07:09.492Z,64.10
2022-12-25T10:09:53.562Z,64.03
2022-12-25T10:12:38.543Z,64.17
2022-12-25T10:15:23.243Z,64.28
2022-12-25T10:18:06.889Z,64.25
2022-12-25T10:20:43.953Z,64.45
2022-12-25T10:23:17.178Z,65.11
2022-12-25T10:25:47.500Z,66.66
2022-12-25T10:28:20.732Z,66.61
2022-12-25T10:30:50.197Z,66.33
2022-12-25T10:33:18.326Z,66.08
2022-12-25T10:35:46.948Z,69.56
2022-12-25T10:38:16.904Z,72.82
2022-12-25T10:41:01.133Z,72.06
2022-12-25T10:43:37.110Z,71.20
2022-12-25T10:46:12.836Z,70.75
2022-12-25T10:48:44.447Z,69.96
2022-12-25T10:51:12.795Z,69.61
2022-12-25T10:53:42.862Z,69.44
2022-12-25T10:56:18.750Z,69.20
2022-12-25T10:58:47.100Z,69.02
2022-12-25T11:01:15.833Z,70.79
2022-12-25T11:03:48.438Z,71.47
2022-12-25T11:06:25.454Z,71.13
2022-12-25T11:08:56.501Z,71.22
2022-12-25T11:11:27.171Z,70.80
2022-12-25T11:13:58.794Z,70.60
2022-12-25T11:16:30.120Z,70.57
2022-12-25T11:18:59.913Z,70.28
2022-12-25T11:21:30.673Z,70.71
2022-12-25T11:24:00.625Z,70.71
2022-12-25T11:26:32.230Z,70.46
2022-12-25T11:29:00.551Z,70.32
2022-12-25T11:31:37.573Z,70.11
2022-12-25T11:34:11.330Z,69.92
2022-12-25T11:36:45.634Z,69.93
2022-12-25T11:39:22.179Z,69.95
2022-12-25T11:41:55.815Z,69.86
2022-12-25T11:44:34.537Z,69.60
2022-12-25T11:47:12.950Z,69.83
2022-12-25T11:49:50.204Z,69.74
2022-12-25T11:52:21.097Z,69.71
2022-12-25T11:54:57.093Z,69.60
2022-12-25T11:57:30.846Z,69.55
2022-12-25T12:00:04.263Z,69.45
2022-12-25T12:02:37.483Z,69.39
2022-12-25T12:05:10.190Z,69.16
2022-12-25T12:07:48.333Z,69.13
2022-12-25T12:10:20.727Z,69.03
2022-12-25T12:12:58.971Z,68.91
2022-12-25T12:15:30.756Z,68.84
2022-12-25T12:18:09.292Z,68.75
2022-12-25T12:20:38.224Z,68.76
2022-12-25T12:23:16.322Z,68.55
2022-12-25T12:25:46.231Z,68.53
2022-12-25T12:28:23.094Z,68.43
2022-12-25T12:31:03.345Z,68.39
2022-12-25T12:33:35.891Z,68.33
2022-12-25T12:36:05.549Z,68.34
2022-12-25T12:38:35.434Z,68.31
2022-12-25T12:41:07.092Z,68.42
2022-12-25T12:43:40.205Z,68.22
2022-12-25T12:46:14.482Z,68.16
2022-12-25T12:48:44.978Z,67.95
2022-12-25T12:51:15.882Z,67.91
2022-12-25T12:53:44.879Z,67.79
2022-12-25T12:56:15.888Z,67.53
2022-12-25T12:58:50.802Z,67.49
2022-12-25T13:01:35.927Z,67.38
2022-12-25T13:04:36.795Z,67.38
2022-12-25T13:07:12.158Z,67.24
2022-12-25T13:09:52.616Z,67.18
2022-12-25T13:12:23.337Z,66.99
2022-12-25T13:14:52.990Z,66.88
2022-12-25T13:17:25.712Z,66.71
2022-12-25T13:19:57.905Z,66.67
2022-12-25T13:22:32.364Z,66.61
2022-12-25T13:25:02.044Z,66.57
2022-12-25T13:27:32.724Z,66.52
2022-12-25T13:30:14.429Z,66.45
2022-12-25T13:32:45.865Z,66.59
2022-12-25T13:35:15.229Z,66.47
2022-12-25T13:37:44.522Z,66.53
2022-12-25T13:40:22.368Z,66.49
2022-12-25T13:42:55.355Z,66.53
2022-12-25T13:45:26.634Z,66.40
2022-12-25T13:47:56.145Z,66.46
2022-12-25T13:50:26.563Z,66.38
2022-12-25T13:52:57.009Z,66.42
2022-12-25T13:55:27.003Z,66.47
2022-12-25T13:57:57.811Z,66.47
2022-12-25T14:00:34.573Z,66.38
2022-12-25T14:03:03.961Z,66.39
2022-12-25T14:05:41.654Z,66.36
2022-12-25T14:08:16.158Z,66.22
2022-12-25T14:10:49.343Z,66.35
2022-12-25T14:13:17.724Z,66.29
2022-12-25T14:15:48.979Z,66.28
2022-12-25T14:18:18.726Z,66.36
2022-12-25T14:20:59.080Z,66.10
2022-12-25T14:23:27.999Z,66.00
2022-12-25T14:25:56.514Z,66.13
2022-12-25T14:28:32.399Z,66.18
2022-12-25T14:31:03.041Z,66.19
2022-12-25T14:33:36.483Z,66.36
2022-12-25T14:36:05.116Z,66.39
2022-12-25T14:38:35.229Z,66.28
2022-12-25T14:41:05.185Z,66.29
2022-12-25T14:43:34.569Z,66.23
2022-12-25T14:46:06.963Z,66.29
2022-12-25T14:48:35.343Z,66.37
2022-12-25T14:51:07.201Z,66.38
2022-12-25T14:53:38.597Z,66.33
2022-12-25T14:56:09.511Z,66.28
2022-12-25T14:58:42.841Z,66.27
2022-12-25T15:01:20.982Z,66.18
2022-12-25T15:03:49.984Z,66.28
2022-12-25T15:06:20.932Z,66.26
2022-12-25T15:08:57.618Z,66.28
2022-12-25T15:11:25.929Z,66.32
2022-12-25T15:13:54.188Z,66.22
2022-12-25T15:16:25.744Z,66.25
2022-12-25T15:18:54.946Z,66.35
2022-12-25T15:21:27.272Z,66.30
2022-12-25T15:23:57.862Z,66.24
2022-12-25T15:26:26.991Z,66.32
2022-12-25T15:28:55.193Z,66.24
2022-12-25T15:31:26.996Z,66.36
2022-12-25T15:33:56.347Z,66.33
2022-12-25T15:36:25.376Z,66.11
2022-12-25T15:38:54.272Z,66.36
2022-12-25T15:41:44.933Z,66.27
2022-12-25T15:44:14.087Z,66.35
2022-12-25T15:46:44.290Z,66.31
2022-12-25T15:49:13.292Z,66.41
2022-12-25T15:51:42.688Z,66.43
2022-12-25T15:54:13.906Z,66.40
2022-12-25T15:56:45.714Z,66.44
2022-12-25T15:59:15.570Z,66.49
2022-12-25T16:01:48.449Z,66.37
2022-12-25T16:04:17.010Z,66.43
2022-12-25T16:06:45.142Z,66.51
2022-12-25T16:09:14.341Z,66.46
2022-12-25T16:11:42.789Z,66.50
2022-12-25T16:14:11.464Z,66.44
2022-12-25T16:16:42.538Z,66.51
2022-12-25T16:19:17.636Z,66.48
2022-12-25T16:21:47.976Z,66.55
2022-12-25T16:24:16.081Z,66.55
2022-12-25T16:26:45.091Z,66.51
2022-12-25T16:29:13.323Z,66.41
2022-12-25T16:31:42.397Z,66.50
2022-12-25T16:34:11.076Z,66.44
2022-12-25T16:36:40.572Z,66.35
2022-12-25T16:39:08.985Z,66.34
2022-12-25T16:41:37.170Z,66.62
2022-12-25T16:44:09.480Z,66.54
2022-12-25T16:46:38.609Z,66.69
2022-12-25T16:49:06.812Z,66.64
2022-12-25T16:51:34.963Z,66.63
2022-12-25T16:54:04.505Z,66.74
2022-12-25T16:56:32.984Z,66.62
2022-12-25T16:59:03.448Z,66.58
2022-12-25T17:01:33.436Z,66.64
2022-12-25T17:04:02.560Z,66.70
2022-12-25T17:06:30.876Z,66.74
2022-12-25T17:09:02.304Z,66.70
2022-12-25T17:11:32.876Z,66.92
2022-12-25T17:14:03.582Z,67.47
2022-12-25T17:16:34.230Z,67.64
2022-12-25T17:19:05.249Z,67.30
2022-12-25T17:21:34.335Z,67.13
2022-12-25T17:24:03.975Z,67.00
2022-12-25T17:26:34.323Z,66.74
2022-12-25T17:29:02.644Z,66.51
2022-12-25T17:31:31.190Z,66.47
2022-12-25T17:34:01.414Z,66.33
2022-12-25T17:36:29.929Z,66.11
2022-12-25T17:38:59.812Z,66.02
2022-12-25T17:41:28.538Z,65.69
2022-12-25T17:43:58.138Z,65.63
2022-12-25T17:46:27.810Z,65.69
2022-12-25T17:48:57.658Z,65.75
2022-12-25T17:51:27.310Z,65.57
2022-12-25T17:53:57.275Z,65.26
2022-12-25T17:56:25.927Z,65.11
2022-12-25T17:58:55.690Z,65.03
2022-12-25T18:01:27.103Z,64.72
2022-12-25T18:03:55.936Z,64.82
2022-12-25T18:06:25.924Z,64.75
2022-12-25T18:08:55.338Z,64.44
2022-12-25T18:11:27.638Z,64.59
2022-12-25T18:13:58.003Z,64.39
2022-12-25T18:16:28.465Z,64.43
2022-12-25T18:19:00.303Z,64.37
2022-12-25T18:21:29.384Z,64.22
2022-12-25T18:23:57.954Z,64.41
2022-12-25T18:26:28.782Z,64.42
2022-12-25T18:28:57.463Z,64.33
2022-12-25T18:31:30.207Z,64.12
2022-12-25T18:33:59.986Z,64.05
2022-12-25T18:36:29.808Z,64.10
2022-12-25T18:38:58.958Z,64.13
2022-12-25T18:41:28.996Z,64.03
2022-12-25T18:43:57.199Z,63.93
2022-12-25T18:46:28.718Z,63.61
2022-12-25T18:49:00.243Z,63.69
2022-12-25T18:51:34.939Z,63.47
2022-12-25T18:54:05.305Z,63.30
2022-12-25T18:56:36.617Z,63.54
2022-12-25T18:59:04.958Z,63.50
2022-12-25T19:01:34.807Z,63.16
2022-12-25T19:04:05.600Z,62.98
2022-12-25T19:06:34.664Z,63.20
2022-12-25T19:09:08.775Z,63.24
2022-12-25T19:11:40.457Z,62.90
2022-12-25T19:14:14.235Z,62.63
2022-12-25T19:16:44.006Z,63.03
2022-12-25T19:19:13.246Z,62.99
2022-12-25T19:21:41.847Z,63.14
2022-12-25T19:24:10.416Z,62.93
2022-12-25T19:26:38.653Z,62.63
2022-12-25T19:29:07.155Z,62.87
2022-12-25T19:31:37.480Z,63.10
2022-12-25T19:34:07.410Z,62.82
2022-12-25T19:36:36.584Z,63.15
2022-12-25T19:39:09.111Z,63.15
2022-12-25T19:41:37.393Z,63.39
2022-12-25T19:44:06.654Z,63.39
2022-12-25T19:46:41.906Z,63.57
2022-12-25T19:49:17.163Z,63.45
2022-12-25T19:51:47.049Z,63.62
2022-12-25T19:54:17.235Z,63.48
2022-12-25T19:56:45.550Z,63.85
2022-12-25T19:59:14.573Z,63.71
2022-12-25T20:01:43.856Z,63.83
2022-12-25T20:04:18.142Z,64.04
2022-12-25T20:06:46.988Z,64.18
2022-12-25T20:09:21.028Z,63.99
2022-12-25T20:11:50.295Z,63.99
2022-12-25T20:14:19.587Z,63.85
2022-12-25T20:16:48.104Z,63.83
2022-12-25T20:19:17.779Z,63.63
2022-12-25T20:21:46.205Z,63.31
2022-12-25T20:24:14.392Z,63.13
2022-12-25T20:26:44.380Z,63.22
2022-12-25T20:29:15.573Z,62.96
2022-12-25T20:31:43.841Z,62.70
2022-12-25T20:34:15.032Z,62.67
2022-12-25T20:36:45.357Z,62.37
2022-12-25T20:39:14.246Z,62.24
2022-12-25T20:41:42.829Z,62.33
2022-12-25T20:44:10.926Z,62.25
2022-12-25T20:46:39.086Z,62.10
2022-12-25T20:49:07.334Z,62.00
2022-12-25T20:51:45.546Z,61.99
2022-12-25T20:54:14.927Z,62.14
2022-12-25T20:56:43.096Z,62.02
2022-12-25T20:59:12.281Z,61.84
2022-12-25T21:01:40.561Z,61.56
2022-12-25T21:04:12.971Z,61.67
2022-12-25T21:06:45.541Z,61.79
2022-12-25T21:09:13.782Z,61.63
2022-12-25T21:11:41.897Z,61.24
2022-12-25T21:14:10.156Z,61.37
2022-12-25T21:16:38.405Z,61.32
2022-12-25T21:19:06.600Z,61.70
2022-12-25T21:21:35.994Z,61.74
2022-12-25T21:24:05.771Z,61.95
2022-12-25T21:26:33.940Z,61.78
2022-12-25T21:29:03.227Z,61.94
2022-12-25T21:31:52.210Z,61.88
2022-12-25T21:34:19.359Z,62.06
2022-12-25T21:36:47.532Z,62.25
2022-12-25T21:39:17.319Z,62.29
2022-12-25T21:41:45.526Z,62.40
2022-12-25T21:44:13.628Z,62.33
2022-12-25T21:46:41.842Z,62.44
2022-12-25T21:49:10.735Z,62.56
2022-12-25T21:51:56.089Z,62.24
2022-12-25T21:54:25.531Z,62.51
2022-12-25T21:56:53.684Z,62.84
2022-12-25T21:59:22.941Z,62.84
2022-12-25T22:01:52.771Z,62.61
2022-12-25T22:04:24.590Z,63.01
2022-12-25T22:07:10.917Z,62.85
2022-12-25T22:09:40.462Z,63.03
2022-12-25T22:12:31.866Z,62.69
2022-12-25T22:15:06.489Z,62.83
2022-12-25T22:17:55.003Z,63.12
2022-12-25T22:20:24.957Z,63.13
2022-12-25T22:22:53.794Z,63.19
2022-12-25T22:25:24.308Z,63.25
2022-12-25T22:27:52.901Z,63.10
2022-12-25T22:30:23.492Z,63.29
2022-12-25T22:32:52.332Z,63.45
2022-12-25T22:35:21.426Z,63.33
2022-12-25T22:37:49.881Z,63.47
2022-12-25T22:40:19.804Z,63.27
2022-12-25T22:42:49.541Z,63.55
2022-12-25T22:45:17.773Z,63.53
2022-12-25T22:47:45.885Z,63.32
2022-12-25T22:50:15.755Z,63.56
2022-12-25T22:52:45.737Z,63.41
2022-12-25T22:55:18.664Z,63.48
2022-12-25T22:57:46.884Z,63.70
2022-12-25T23:00:16.646Z,63.77
2022-12-25T23:02:44.846Z,63.80
2022-12-25T23:05:13.227Z,63.83
2022-12-25T23:07:41.797Z,63.62
2022-12-25T23:10:10.756Z,63.86
2022-12-25T23:12:56.352Z,63.83
2022-12-25T23:15:27.614Z,63.86
2022-12-25T23:18:13.497Z,63.80
2022-12-25T23:20:59.292Z,63.86
2022-12-25T23:23:44.763Z,63.86
2022-12-25T23:26:13.754Z,63.93
2022-12-25T23:29:00.904Z,63.72
2022-12-25T23:31:35.232Z,63.94
2022-12-25T23:34:04.815Z,63.85
2022-12-25T23:36:33.089Z,64.06
2022-12-25T23:39:08.713Z,64.11
2022-12-25T23:41:38.823Z,64.04
2022-12-25T23:44:07.095Z,64.10
2022-12-25T23:46:37.090Z,64.04
2022-12-25T23:49:06.350Z,64.13
2022-12-25T23:51:37.671Z,64.10
2022-12-25T23:54:06.585Z,64.13
2022-12-25T23:56:34.962Z,64.03
2022-12-25T23:59:03.293Z,64.09
